Time;durP1;ratioP1;P1;durP2;ratioP2;P2;SDS_P1;SDS_P2;PMS_P1;PMS_P2;Temp;Humidity;BMP_temperature;BMP_pressure;BME280_temperature;BME280_humidity;BME280_pressure;Samples;Min_cycle;Max_cycle;Signal;HPM_P1;HPM_P2
2024/01/29 00:00:33;;;;;;;23.90;12.32;;;;;;;1.03;77.35;96746.00;5072676;28;20047;-85
2024/01/29 00:02:59;;;;;;;28.63;11.32;;;;;;;1.53;76.81;96833.47;5054114;28;20135;-85
2024/01/29 00:05:24;;;;;;;21.50;10.20;;;;;;;1.56;77.47;96846.19;5035938;28;20358;-85
2024/01/29 00:07:50;;;;;;;20.48;10.70;;;;;;;0.37;77.28;96674.38;5034300;28;20059;-84
2024/01/29 00:10:16;;;;;;;23.17;10.23;;;;;;;-0.49;77.95;96538.13;5042482;28;20052;-84
2024/01/29 00:12:41;;;;;;;23.35;10.00;;;;;;;1.16;77.46;96795.84;5030022;28;20043;-85
2024/01/29 00:15:07;;;;;;;21.02;10.48;;;;;;;1.48;77.61;96848.88;5064050;28;20098;-84
2024/01/29 00:17:33;;;;;;;22.83;11.05;;;;;;;0.89;78.09;96783.34;5016674;28;20037;-84
2024/01/29 00:19:59;;;;;;;22.85;10.40;;;;;;;1.17;78.25;96825.41;5065214;28;20051;-84
2024/01/29 00:22:24;;;;;;;20.88;9.93;;;;;;;1.12;77.75;96799.00;5063312;28;20043;-84
2024/01/29 00:24:50;;;;;;;17.92;9.30;;;;;;;0.69;77.72;96732.53;5062713;28;20039;-85
2024/01/29 00:27:15;;;;;;;22.15;10.07;;;;;;;0.97;77.93;96770.22;5044707;28;20114;-84
2024/01/29 00:29:41;;;;;;;25.48;11.82;;;;;;;1.44;77.37;96853.66;5044303;28;20504;-85
2024/01/29 00:32:06;;;;;;;25.08;9.88;;;;;;;1.45;77.07;96816.03;5054627;28;20151;-84
2024/01/29 00:34:32;;;;;;;28.10;10.27;;;;;;;1.08;76.82;96761.94;5031567;28;20068;-84
2024/01/29 00:36:57;;;;;;;20.73;10.20;;;;;;;1.03;77.08;96759.06;5052498;28;20051;-85
2024/01/29 00:39:23;;;;;;;19.45;9.45;;;;;;;1.63;76.79;96859.38;5060946;28;20252;-86
2024/01/29 00:41:49;;;;;;;27.08;10.23;;;;;;;0.61;76.96;96696.06;5063714;28;20033;-85
2024/01/29 00:44:17;;;;;;;19.70;9.82;;;;;;;0.75;77.27;96719.63;5055921;28;20052;-85
2024/01/29 00:46:42;;;;;;;20.48;10.65;;;;;;;0.41;76.99;96674.00;5064059;28;20044;-88
2024/01/29 00:49:08;;;;;;;24.42;9.98;;;;;;;1.02;77.45;96794.00;5053447;28;20044;-88
2024/01/29 00:51:33;;;;;;;21.23;9.60;;;;;;;1.30;77.28;96832.69;5027937;28;20036;-88
2024/01/29 00:53:59;;;;;;;22.38;9.75;;;;;;;0.81;76.82;96732.94;5037422;28;20033;-89
2024/01/29 00:56:24;;;;;;;24.42;10.13;;;;;;;-0.41;76.50;96558.94;5061827;28;20098;-89
2024/01/29 00:58:50;;;;;;;21.73;10.25;;;;;;;0.07;76.87;96627.44;5037312;28;20424;-88
2024/01/29 01:01:15;;;;;;;22.25;10.50;;;;;;;1.59;77.17;96877.22;5036178;28;20044;-89
2024/01/29 01:03:41;;;;;;;19.95;9.60;;;;;;;1.34;76.86;96813.03;5064141;28;20043;-88
2024/01/29 01:06:07;;;;;;;22.75;10.25;;;;;;;1.50;76.64;96839.88;5037735;28;20041;-89
2024/01/29 01:08:32;;;;;;;25.95;10.60;;;;;;;1.05;76.82;96761.50;5060829;28;20049;-88
2024/01/29 01:10:58;;;;;;;20.10;10.52;;;;;;;0.70;76.33;96689.78;5033404;28;20048;-87
2024/01/29 01:13:23;;;;;;;21.65;10.13;;;;;;;-0.05;75.92;96590.50;5056431;28;20044;-88
2024/01/29 01:15:49;;;;;;;20.55;10.73;;;;;;;-1.10;75.73;96448.56;5058216;28;20051;-87
2024/01/29 01:18:14;;;;;;;21.40;9.57;;;;;;;-1.45;76.13;96408.22;5056661;28;20036;-87
2024/01/29 01:20:40;;;;;;;25.23;10.40;;;;;;;0.16;76.65;96655.88;5091631;28;20040;-88
2024/01/29 01:23:05;;;;;;;24.15;9.55;;;;;;;1.65;76.24;96880.94;5060088;28;20040;-89
2024/01/29 01:25:31;;;;;;;24.88;9.85;;;;;;;-0.33;75.85;96540.66;5059140;28;20029;-89
2024/01/29 01:27:57;;;;;;;17.35;9.38;;;;;;;-0.32;75.66;96539.66;5052248;28;20420;-88
2024/01/29 01:30:22;;;;;;;20.63;8.57;;;;;;;0.50;76.03;96665.13;5022728;28;20406;-88
2024/01/29 01:32:49;;;;;;;21.35;8.50;;;;;;;1.34;76.60;96841.78;5042137;28;20036;-88
2024/01/29 01:35:14;;;;;;;16.00;8.82;;;;;;;1.12;76.41;96773.69;5077476;28;20040;-88
2024/01/29 01:37:40;;;;;;;20.88;8.90;;;;;;;0.22;76.22;96617.88;5048942;28;20040;-88
2024/01/29 01:40:06;;;;;;;18.48;8.35;;;;;;;-0.25;75.81;96531.97;5027142;28;20540;-89
2024/01/29 01:42:31;;;;;;;21.10;8.85;;;;;;;1.66;76.11;96864.25;5058227;28;20036;-88
2024/01/29 01:44:57;;;;;;;26.25;9.02;;;;;;;0.02;76.43;96607.06;5029916;28;20064;-88
2024/01/29 01:47:22;;;;;;;13.98;8.82;;;;;;;0.08;77.00;96642.09;5043585;28;20028;-88
2024/01/29 01:49:48;;;;;;;19.30;8.95;;;;;;;1.31;76.57;96829.06;5025990;28;20032;-88
2024/01/29 01:52:15;;;;;;;22.13;9.85;;;;;;;0.50;76.98;96704.28;5054020;28;20485;-89
2024/01/29 01:54:42;;;;;;;14.60;8.40;;;;;;;1.54;77.37;96856.81;5076362;28;20047;-89
2024/01/29 01:57:07;;;;;;;21.75;9.90;;;;;;;0.82;77.02;96755.47;5040217;28;20040;-84
2024/01/29 01:59:33;;;;;;;19.23;9.35;;;;;;;1.23;77.05;96806.41;5055470;28;20036;-84
2024/01/29 02:01:59;;;;;;;22.83;9.25;;;;;;;0.14;76.86;96636.19;5036578;28;20036;-85
2024/01/29 02:04:24;;;;;;;21.35;9.73;;;;;;;0.86;76.90;96764.56;5048665;28;20036;-84
2024/01/29 02:06:51;;;;;;;21.95;10.00;;;;;;;-0.82;76.76;96482.78;5047129;28;20044;-85
2024/01/29 02:09:17;;;;;;;21.05;9.88;;;;;;;-0.39;76.61;96549.16;5050214;28;20139;-85
2024/01/29 02:11:42;;;;;;;22.30;9.63;;;;;;;-0.29;76.46;96552.34;5053981;28;20069;-84
2024/01/29 02:14:08;;;;;;;27.27;10.65;;;;;;;1.15;76.20;96796.84;5026812;28;20041;-85
2024/01/29 02:16:33;;;;;;;26.90;11.32;;;;;;;1.62;76.84;96866.41;5055497;28;20095;-85
2024/01/29 02:18:59;;;;;;;22.63;10.15;;;;;;;0.67;77.05;96735.34;5058609;28;20044;-84
2024/01/29 02:21:25;;;;;;;21.60;10.48;;;;;;;0.97;77.20;96785.91;5056891;28;20032;-85
2024/01/29 02:23:50;;;;;;;19.80;9.43;;;;;;;0.94;76.83;96764.50;5040966;28;20028;-85
2024/01/29 02:26:16;;;;;;;29.25;10.00;;;;;;;0.28;76.03;96640.66;5052585;28;20040;-85
2024/01/29 02:28:41;;;;;;;19.13;9.02;;;;;;;1.53;76.43;96865.66;5050530;28;20036;-85
2024/01/29 02:31:07;;;;;;;17.98;9.50;;;;;;;1.09;76.68;96799.34;5043900;28;20040;-85
2024/01/29 02:33:32;;;;;;;25.45;9.50;;;;;;;-1.03;75.81;96446.91;5061837;28;20047;-85
2024/01/29 02:35:58;;;;;;;18.05;8.55;;;;;;;1.39;75.80;96811.53;5079025;28;20044;-85
2024/01/29 02:38:23;;;;;;;19.40;8.85;;;;;;;1.35;75.99;96812.88;5059561;28;20063;-85
2024/01/29 02:40:49;;;;;;;19.23;9.02;;;;;;;1.45;75.92;96821.25;5027095;28;20060;-84
2024/01/29 02:43:14;;;;;;;24.17;9.60;;;;;;;1.79;75.27;96838.31;5034816;28;20071;-85
2024/01/29 02:45:40;;;;;;;22.25;9.80;;;;;;;1.85;74.73;96841.00;5072718;28;20044;-85
2024/01/29 02:48:06;;;;;;;16.20;8.70;;;;;;;0.57;74.86;96630.31;5051606;28;20133;-85
2024/01/29 02:50:31;;;;;;;18.65;9.80;;;;;;;-0.20;74.29;96506.97;5066428;28;20028;-84
2024/01/29 02:52:58;;;;;;;20.27;9.07;;;;;;;1.43;73.89;96757.09;5047688;28;20048;-85
2024/01/29 02:55:24;;;;;;;16.58;9.07;;;;;;;2.24;73.71;96864.34;5051618;28;20142;-84
2024/01/29 02:57:49;;;;;;;21.95;10.07;;;;;;;1.65;73.46;96786.78;5023154;28;20036;-85
2024/01/29 03:00:15;;;;;;;19.73;9.23;;;;;;;0.18;73.98;96567.00;5038237;28;20055;-85
2024/01/29 03:02:40;;;;;;;20.20;10.45;;;;;;;1.54;73.74;96778.38;5062894;28;20075;-84
2024/01/29 03:05:07;;;;;;;22.35;9.45;;;;;;;-0.01;73.49;96508.31;5057197;28;20048;-85
2024/01/29 03:07:32;;;;;;;19.63;9.65;;;;;;;1.46;73.57;96746.25;5042739;28;20102;-87
2024/01/29 03:09:58;;;;;;;29.52;10.43;;;;;;;0.90;74.24;96656.16;5050277;28;20056;-86
2024/01/29 03:12:23;;;;;;;17.00;9.70;;;;;;;0.50;73.43;96563.31;5024460;28;20047;-86
2024/01/29 03:14:50;;;;;;;23.65;10.55;;;;;;;0.90;73.46;96633.47;5028180;28;20033;-86
2024/01/29 03:17:16;;;;;;;16.38;9.52;;;;;;;0.87;73.13;96614.72;5016214;28;20071;-87
2024/01/29 03:19:41;;;;;;;19.73;9.20;;;;;;;2.58;72.84;96874.28;5058035;28;20037;-86
2024/01/29 03:22:07;;;;;;;16.65;8.75;;;;;;;1.01;73.19;96621.75;5062658;28;20408;-86
2024/01/29 03:24:32;;;;;;;17.90;9.30;;;;;;;1.70;72.42;96719.88;5064614;28;20357;-87
2024/01/29 03:26:58;;;;;;;22.33;9.63;;;;;;;1.73;72.64;96716.09;5031113;28;20108;-86
2024/01/29 03:29:24;;;;;;;20.70;9.25;;;;;;;1.85;72.61;96732.94;5058581;28;20068;-87
2024/01/29 03:31:49;;;;;;;17.63;9.75;;;;;;;0.71;72.04;96543.38;5047552;28;20036;-87
2024/01/29 03:34:15;;;;;;;18.13;9.27;;;;;;;1.49;71.99;96670.09;5047578;28;20051;-87
2024/01/29 03:36:43;;;;;;;20.67;9.90;;;;;;;2.66;72.10;96868.13;5058786;28;20118;-86
2024/01/29 03:39:09;;;;;;;21.00;10.32;;;;;;;2.23;72.29;96802.50;5039238;28;20123;-86
2024/01/29 03:41:35;;;;;;;22.85;10.35;;;;;;;2.52;72.34;96851.41;5086408;28;20037;-86
2024/01/29 03:44:00;;;;;;;20.73;9.60;;;;;;;2.06;72.47;96776.72;5043720;28;20036;-87
2024/01/29 03:46:26;;;;;;;27.02;10.88;;;;;;;2.03;72.49;96775.25;5068344;28;20036;-86
2024/01/29 03:48:51;;;;;;;20.50;10.18;;;;;;;2.50;72.60;96835.09;5035848;28;20047;-86
2024/01/29 03:51:17;;;;;;;19.63;9.93;;;;;;;2.08;72.12;96775.53;5052836;28;20128;-86
2024/01/29 03:53:43;;;;;;;22.13;10.00;;;;;;;2.12;71.86;96782.03;5043232;28;20082;-87
2024/01/29 03:56:08;;;;;;;19.65;10.60;;;;;;;2.60;72.27;96851.31;5025196;28;20059;-87
2024/01/29 03:58:34;;;;;;;20.00;9.93;;;;;;;1.15;72.17;96615.72;5058075;28;20433;-87
2024/01/29 04:00:59;;;;;;;19.08;10.13;;;;;;;1.89;72.20;96729.00;5026021;28;20036;-86
2024/01/29 04:03:25;;;;;;;21.20;10.48;;;;;;;2.54;71.65;96859.09;5056890;28;20422;-86
2024/01/29 04:05:50;;;;;;;18.42;9.80;;;;;;;1.86;72.16;96748.47;5027811;28;20052;-84
2024/01/29 04:08:16;;;;;;;21.67;11.20;;;;;;;2.61;72.42;96873.88;5053756;28;20049;-84
2024/01/29 04:10:42;;;;;;;18.75;10.13;;;;;;;1.11;72.12;96630.16;5042201;28;20090;-85
2024/01/29 04:13:07;;;;;;;22.08;9.95;;;;;;;2.62;71.77;96867.66;5048775;28;20041;-84
2024/01/29 04:15:33;;;;;;;19.92;9.63;;;;;;;1.47;72.24;96691.19;5042240;28;20036;-86
2024/01/29 04:18:01;;;;;;;26.92;11.07;;;;;;;2.48;72.07;96844.91;5025927;28;20055;-86
2024/01/29 04:20:27;;;;;;;24.73;11.85;;;;;;;1.72;73.43;96754.50;5042388;28;20036;-86
2024/01/29 04:22:52;;;;;;;22.42;11.40;;;;;;;2.46;73.69;96875.69;5041540;28;20040;-87
2024/01/29 04:25:18;;;;;;;25.35;11.68;;;;;;;1.77;73.30;96751.34;5039236;28;20032;-87
2024/01/29 04:27:43;;;;;;;21.05;10.45;;;;;;;2.11;73.44;96790.88;5057963;28;20041;-87
2024/01/29 04:30:09;;;;;;;25.17;13.30;;;;;;;1.81;73.60;96755.25;5025983;28;20028;-86
2024/01/29 04:32:35;;;;;;;24.65;11.20;;;;;;;1.86;73.73;96777.25;5041814;28;20096;-87
2024/01/29 04:35:01;;;;;;;23.65;12.93;;;;;;;0.35;73.62;96543.22;5058827;28;20111;-86
2024/01/29 04:37:26;;;;;;;22.83;12.32;;;;;;;2.02;73.98;96814.69;5022467;28;20064;-86
2024/01/29 04:39:53;;;;;;;24.50;12.52;;;;;;;2.23;73.93;96843.56;5044997;28;20064;-87
2024/01/29 04:42:21;;;;;;;22.58;11.43;;;;;;;1.96;74.28;96792.69;5041677;28;20047;-87
2024/01/29 04:44:46;;;;;;;24.50;11.52;;;;;;;2.60;74.06;96895.84;5020202;28;20051;-86
2024/01/29 04:47:12;;;;;;;21.55;10.48;;;;;;;2.62;73.70;96900.91;5038453;28;20527;-87
2024/01/29 04:49:37;;;;;;;18.38;10.40;;;;;;;2.33;73.62;96863.25;5031259;28;20053;-87
2024/01/29 04:52:03;;;;;;;23.38;10.80;;;;;;;1.99;74.08;96820.28;5035229;28;20041;-86
2024/01/29 04:54:30;;;;;;;22.08;10.05;;;;;;;1.01;74.48;96674.81;5051943;28;20504;-86
2024/01/29 04:56:55;;;;;;;21.52;10.32;;;;;;;2.29;73.68;96882.09;5034436;28;20041;-86
2024/01/29 04:59:21;;;;;;;19.60;9.43;;;;;;;0.86;74.09;96681.81;5054445;28;20269;-87
2024/01/29 05:01:46;;;;;;;22.48;10.07;;;;;;;0.78;74.24;96645.31;5032707;28;20541;-86
2024/01/29 05:04:12;;;;;;;23.48;10.57;;;;;;;0.96;73.45;96679.78;5017904;28;20032;-86
2024/01/29 05:06:37;;;;;;;19.30;9.68;;;;;;;1.58;73.49;96785.88;5025511;28;20037;-86
2024/01/29 05:09:03;;;;;;;21.75;10.25;;;;;;;2.45;73.86;96943.97;5039591;28;20063;-87
2024/01/29 05:11:29;;;;;;;22.02;10.45;;;;;;;2.42;73.83;96939.09;5013969;28;20067;-87
2024/01/29 05:13:54;;;;;;;21.23;9.80;;;;;;;0.41;73.76;96620.00;5025327;28;20092;-86
2024/01/29 05:16:20;;;;;;;17.73;9.98;;;;;;;1.58;73.69;96809.41;5014186;28;20096;-87
2024/01/29 05:18:47;;;;;;;17.35;9.75;;;;;;;1.56;73.86;96812.19;5034825;28;20060;-87
2024/01/29 05:21:13;;;;;;;19.25;8.98;;;;;;;-1.01;73.42;96397.28;5038961;28;20133;-86
2024/01/29 05:23:39;;;;;;;18.00;9.40;;;;;;;2.32;74.05;96929.69;5027356;28;20045;-87
2024/01/29 05:26:04;;;;;;;21.98;9.35;;;;;;;1.15;73.63;96741.16;5010662;28;20104;-86
2024/01/29 05:28:30;;;;;;;19.30;8.82;;;;;;;2.46;73.92;96935.94;5011698;28;20028;-86
2024/01/29 05:30:56;;;;;;;18.65;10.15;;;;;;;0.58;73.37;96641.56;5008633;28;20094;-88
2024/01/29 05:33:21;;;;;;;16.73;8.68;;;;;;;2.41;73.25;96935.66;4995149;28;20079;-86
2024/01/29 05:35:47;;;;;;;17.30;8.48;;;;;;;1.02;73.06;96688.69;5000372;28;20048;-88
2024/01/29 05:38:12;;;;;;;21.58;8.23;;;;;;;2.50;72.70;96934.59;5017470;28;20072;-87
2024/01/29 05:40:38;;;;;;;16.23;8.93;;;;;;;1.42;72.90;96777.19;5003576;28;20056;-88
2024/01/29 05:43:03;;;;;;;21.55;8.98;;;;;;;0.62;72.52;96633.19;5011199;28;20040;-87
2024/01/29 05:45:29;;;;;;;17.70;8.40;;;;;;;2.59;72.23;96946.63;5018429;28;20152;-88
2024/01/29 05:47:54;;;;;;;19.20;8.60;;;;;;;2.47;72.77;96958.50;5008777;28;20194;-88
2024/01/29 05:50:21;;;;;;;17.75;8.68;;;;;;;2.26;72.57;96911.28;5025120;28;20098;-89
2024/01/29 05:52:46;;;;;;;18.20;8.57;;;;;;;2.13;72.45;96874.44;5013893;28;20036;-87
2024/01/29 05:55:12;;;;;;;17.23;9.15;;;;;;;2.00;72.53;96854.13;5019893;28;20037;-87
2024/01/29 05:57:40;;;;;;;16.33;8.85;;;;;;;2.19;72.53;96878.97;5043260;28;20479;-87
2024/01/29 06:00:10;;;;;;;17.90;8.90;;;;;;;2.55;72.39;96955.81;5027190;28;20175;-86
2024/01/29 06:02:42;;;;;;;19.65;9.10;;;;;;;2.44;72.44;96927.44;5025142;28;20045;-86
2024/01/29 06:05:09;;;;;;;18.88;8.82;;;;;;;2.21;72.43;96911.00;5044062;28;20063;-86
2024/01/29 06:07:34;;;;;;;20.80;9.32;;;;;;;1.25;72.21;96754.78;5044079;28;20534;-87
2024/01/29 06:10:00;;;;;;;19.73;9.02;;;;;;;2.64;72.21;96951.31;5004820;28;20056;-87
2024/01/29 06:12:25;;;;;;;17.02;9.05;;;;;;;2.61;72.24;96960.31;5020481;28;20125;-87
2024/01/29 06:14:51;;;;;;;20.52;9.60;;;;;;;2.09;72.09;96881.84;5027649;28;20055;-88
2024/01/29 06:17:17;;;;;;;16.27;9.52;;;;;;;1.26;71.89;96747.78;5038567;28;20059;-88
2024/01/29 06:19:42;;;;;;;18.08;9.32;;;;;;;1.65;72.09;96805.09;5027647;28;20040;-87
2024/01/29 06:22:08;;;;;;;14.98;8.27;;;;;;;2.25;71.88;96907.03;5012023;28;20072;-88
2024/01/29 06:24:33;;;;;;;18.08;9.07;;;;;;;1.71;72.01;96807.81;5014737;28;20032;-88
2024/01/29 06:26:59;;;;;;;25.55;10.32;;;;;;;1.27;71.49;96731.09;5034374;28;20044;-87
2024/01/29 06:29:25;;;;;;;17.73;9.43;;;;;;;1.37;71.63;96761.25;5057398;28;20044;-87
2024/01/29 06:31:51;;;;;;;19.15;8.88;;;;;;;1.61;71.41;96772.44;5027991;28;20090;-86
2024/01/29 06:34:17;;;;;;;18.48;9.30;;;;;;;1.48;71.46;96760.78;5039835;28;20712;-85
2024/01/29 06:36:43;;;;;;;25.92;9.70;;;;;;;1.74;71.21;96836.22;5016918;28;20056;-86
2024/01/29 06:39:08;;;;;;;16.45;9.35;;;;;;;1.28;71.33;96732.72;5027246;28;20037;-85
2024/01/29 06:41:34;;;;;;;20.20;9.40;;;;;;;2.68;70.96;96947.31;5025568;28;20344;-86
2024/01/29 06:44:00;;;;;;;19.35;9.52;;;;;;;2.95;70.85;96987.81;5031531;28;20068;-88
2024/01/29 06:46:25;;;;;;;21.42;9.52;;;;;;;-0.05;70.83;96520.06;5023620;28;20059;-88
2024/01/29 06:48:51;;;;;;;17.70;8.68;;;;;;;2.00;70.24;96838.41;5025095;28;20118;-87
2024/01/29 06:51:16;;;;;;;22.30;9.65;;;;;;;2.51;69.79;96914.47;5041028;28;20048;-87
2024/01/29 06:53:42;;;;;;;21.52;9.43;;;;;;;2.83;69.53;96968.28;5055767;28;20033;-86
2024/01/29 06:56:08;;;;;;;21.42;9.00;;;;;;;1.67;69.41;96763.88;5031550;28;20054;-89
2024/01/29 06:58:37;;;;;;;15.75;8.75;;;;;;;2.56;69.64;96914.72;5058827;23;20472;-85
2024/01/29 07:01:05;;;;;;;17.08;8.82;;;;;;;2.23;69.63;96862.69;5035963;28;20052;-86
2024/01/29 07:03:32;;;;;;;24.60;9.95;;;;;;;3.08;69.23;96983.53;5037268;28;20151;-86
2024/01/29 07:05:59;;;;;;;14.18;8.50;;;;;;;2.76;68.23;96931.50;5061221;28;20051;-85
2024/01/29 07:08:25;;;;;;;16.40;7.95;;;;;;;2.58;67.45;96915.38;5041144;28;20741;-86
2024/01/29 07:10:51;;;;;;;15.32;8.07;;;;;;;3.01;67.34;96995.75;5048359;28;20044;-87
2024/01/29 07:13:19;;;;;;;17.63;7.78;;;;;;;2.45;66.75;96907.31;5025042;28;20048;-86
2024/01/29 07:15:45;;;;;;;14.77;7.57;;;;;;;2.11;67.47;96845.84;5046103;28;20051;-86
2024/01/29 07:18:11;;;;;;;16.63;9.50;;;;;;;0.70;66.73;96616.66;5051249;28;20040;-85
2024/01/29 07:20:41;;;;;;;19.73;9.15;;;;;;;2.87;65.99;96967.75;5053330;28;20475;-85
2024/01/29 07:23:07;;;;;;;45.70;11.20;;;;;;;2.90;65.71;96995.41;5045805;28;20048;-85
2024/01/29 07:25:43;;;;;;;18.77;8.73;;;;;;;2.95;65.49;96986.00;5065092;28;20095;-87
2024/01/29 07:28:08;;;;;;;24.40;9.13;;;;;;;0.34;64.99;96582.53;5029589;28;20106;-86
2024/01/29 07:30:34;;;;;;;27.67;10.30;;;;;;;0.40;65.44;96587.06;5053837;28;20142;-86
2024/01/29 07:33:00;;;;;;;36.95;8.23;;;;;;;2.87;65.13;96965.13;5034906;28;20109;-85
2024/01/29 07:35:29;;;;;;;23.77;10.32;;;;;;;0.75;65.20;96628.22;5036120;28;20052;-86
2024/01/29 07:37:55;;;;;;;34.45;10.75;;;;;;;2.28;64.90;96846.47;5033481;28;20054;-87
2024/01/29 07:40:20;;;;;;;26.75;10.35;;;;;;;0.94;64.71;96639.94;5035207;28;21007;-85
2024/01/29 07:42:46;;;;;;;21.77;10.52;;;;;;;2.68;65.73;96960.41;5052190;28;20323;-85
2024/01/29 07:45:12;;;;;;;33.17;9.82;;;;;;;1.02;65.34;96704.38;5050961;28;20552;-85
2024/01/29 07:47:38;;;;;;;29.17;10.55;;;;;;;2.26;65.75;96917.34;5032874;28;20048;-86
2024/01/29 07:50:04;;;;;;;38.50;10.43;;;;;;;2.85;65.56;97003.78;5075698;22;20051;-83
2024/01/29 07:52:30;;;;;;;33.97;10.15;;;;;;;1.22;65.34;96741.28;5027959;28;20118;-86
2024/01/29 07:54:59;;;;;;;35.45;10.27;;;;;;;2.50;65.85;96939.03;5031660;28;20044;-85
2024/01/29 07:57:25;;;;;;;28.20;11.02;;;;;;;0.44;65.93;96595.38;5026455;28;20040;-85
2024/01/29 07:59:51;;;;;;;36.72;10.65;;;;;;;2.92;66.49;96986.34;5052974;28;20520;-85
2024/01/29 08:02:25;;;;;;;32.38;10.10;;;;;;;2.70;66.50;96940.09;5050263;28;20036;-85
2024/01/29 08:04:51;;;;;;;27.80;10.50;;;;;;;1.10;66.26;96681.59;5078193;28;20075;-85
2024/01/29 08:07:17;;;;;;;29.85;12.13;;;;;;;2.24;66.11;96851.25;5051816;28;20241;-83
2024/01/29 08:09:43;;;;;;;46.20;11.38;;;;;;;1.51;65.68;96721.22;5021566;28;20333;-84
2024/01/29 08:12:08;;;;;;;33.50;10.55;;;;;;;3.21;65.76;97003.84;5016510;28;20602;-86
2024/01/29 08:14:34;;;;;;;25.95;10.73;;;;;;;3.37;65.46;97006.28;5024864;28;20060;-84
2024/01/29 08:16:59;;;;;;;46.72;12.57;;;;;;;3.01;65.71;96972.16;5031541;28;20618;-86
2024/01/29 08:19:25;;;;;;;27.13;10.48;;;;;;;3.00;66.15;96983.63;5048475;28;20123;-84
2024/01/29 08:21:50;;;;;;;29.63;12.55;;;;;;;3.39;65.76;97019.22;5046850;28;20132;-86
2024/01/29 08:24:16;;;;;;;42.00;12.00;;;;;;;3.43;65.66;97020.50;5035064;28;20039;-84
2024/01/29 08:26:45;;;;;;;49.17;14.50;;;;;;;3.44;66.06;97033.41;5015789;28;20060;-85
2024/01/29 08:29:10;;;;;;;37.20;12.55;;;;;;;2.63;65.73;96903.34;5064177;28;20040;-86
2024/01/29 08:31:36;;;;;;;33.33;13.07;;;;;;;2.63;64.79;96900.72;5055036;28;20055;-83
2024/01/29 08:34:04;;;;;;;35.00;13.27;;;;;;;3.10;64.81;96973.69;5023341;28;20566;-85
2024/01/29 08:36:30;;;;;;;35.33;12.27;;;;;;;2.59;64.30;96869.84;5048394;28;20044;-85
2024/01/29 08:38:55;;;;;;;28.80;12.63;;;;;;;2.13;64.50;96788.09;5045337;28;20048;-83
2024/01/29 08:41:21;;;;;;;36.83;13.05;;;;;;;2.91;63.87;96871.22;5063406;28;20044;-84
2024/01/29 08:43:47;;;;;;;31.77;14.15;;;;;;;3.64;63.47;97022.34;5063071;28;20132;-84
2024/01/29 08:46:12;;;;;;;25.73;10.45;;;;;;;3.34;63.97;96962.09;5067243;28;20044;-84
2024/01/29 08:48:38;;;;;;;14.10;8.23;;;;;;;2.39;63.05;96788.41;5043233;28;20028;-83
2024/01/29 08:51:04;;;;;;;13.13;6.47;;;;;;;3.98;61.68;97051.34;5044870;28;20048;-85
2024/01/29 08:53:30;;;;;;;16.48;8.60;;;;;;;3.46;62.06;96967.66;5047799;28;20187;-84
2024/01/29 08:55:55;;;;;;;19.08;9.25;;;;;;;3.97;62.38;97056.81;5042982;28;20044;-83
2024/01/29 08:58:21;;;;;;;23.25;9.93;;;;;;;2.30;61.67;96781.63;5022336;28;20505;-83
2024/01/29 09:00:54;;;;;;;25.90;7.85;;;;;;;0.82;61.37;96531.69;5045772;28;20051;-85
2024/01/29 09:03:20;;;;;;;14.45;6.65;;;;;;;1.27;61.00;96598.63;5047485;28;20048;-85
2024/01/29 09:05:48;;;;;;;29.45;7.45;;;;;;;1.20;59.67;96570.78;5044868;28;20044;-84
2024/01/29 09:08:14;;;;;;;21.45;6.25;;;;;;;2.01;58.28;96721.47;5033766;28;20044;-84
2024/01/29 09:10:46;;;;;;;20.95;5.90;;;;;;;1.43;56.37;96619.34;5033054;28;20078;-86
2024/01/29 09:13:12;;;;;;;;;;;;;;;4.19;56.48;97046.13;5047960;28;20036;-83
2024/01/29 09:15:38;;;;;;;24.58;6.40;;;;;;;4.15;56.20;97051.94;5057870;28;20293;-85
2024/01/29 09:18:04;;;;;;;15.98;6.60;;;;;;;2.43;56.03;96747.78;5025515;28;20056;-86
2024/01/29 09:20:30;;;;;;;18.65;6.95;;;;;;;3.93;56.32;96975.00;5046212;28;20512;-84
2024/01/29 09:22:55;;;;;;;13.25;6.85;;;;;;;4.46;56.26;97081.31;5062858;28;20108;-85
2024/01/29 09:25:21;;;;;;;17.27;6.07;;;;;;;4.00;55.01;97004.75;5045127;28;20142;-85
2024/01/29 09:27:50;;;;;;;22.17;6.25;;;;;;;2.40;55.50;96732.41;5044921;28;20185;-85
2024/01/29 09:30:18;;;;;;;16.40;4.55;;;;;;;2.54;54.13;96786.56;5063395;28;20504;-83
2024/01/29 09:32:47;;;;;;;19.27;4.15;;;;;;;2.71;52.96;96753.91;5046965;28;20074;-84
2024/01/29 09:35:13;;;;;;;7.80;4.22;;;;;;;2.28;52.38;96752.22;5046411;28;20083;-82
2024/01/29 09:37:41;;;;;;;7.35;4.15;;;;;;;2.90;52.66;96854.69;5066559;28;20424;-85
2024/01/29 09:40:10;;;;;;;8.88;4.15;;;;;;;4.18;52.93;97023.50;5028296;28;20048;-85
2024/01/29 09:42:36;;;;;;;12.35;4.57;;;;;;;3.43;52.95;96873.63;5021853;28;20052;-81
2024/01/29 09:45:02;;;;;;;20.55;4.95;;;;;;;4.53;52.45;97037.53;5023098;28;20149;-84
2024/01/29 09:47:27;;;;;;;27.67;5.70;;;;;;;4.30;51.59;97022.97;5015935;28;20056;-84
2024/01/29 09:49:54;;;;;;;24.35;5.78;;;;;;;3.06;51.96;96830.06;5045312;28;20183;-84
2024/01/29 09:52:19;;;;;;;12.32;3.92;;;;;;;4.39;52.12;97030.53;5040888;28;20051;-86
2024/01/29 09:54:49;;;;;;;8.25;3.28;;;;;;;3.78;51.33;96969.00;5017426;28;20040;-86
2024/01/29 09:57:17;;;;;;;13.50;4.38;;;;;;;4.11;51.85;97040.19;5013389;28;20135;-84
2024/01/29 09:59:46;;;;;;;13.90;4.20;;;;;;;4.18;51.19;97022.69;5030961;28;20397;-85
2024/01/29 10:02:19;;;;;;;12.10;4.60;;;;;;;2.25;51.62;96719.38;5069100;28;20055;-88
2024/01/29 10:04:49;;;;;;;9.90;3.50;;;;;;;1.29;51.51;96580.97;5049398;28;20043;-86
2024/01/29 10:07:15;;;;;;;21.33;5.03;;;;;;;2.44;51.64;96740.72;5057670;28;20770;-85
2024/01/29 10:09:43;;;;;;;10.30;3.55;;;;;;;1.23;51.08;96552.09;5032108;28;20059;-85
2024/01/29 10:12:22;;;;;;;19.45;3.72;;;;;;;4.27;51.29;97061.75;5014401;28;20046;-85
2024/01/29 10:14:55;;;;;;;8.13;3.08;;;;;;;2.75;50.82;96788.41;5016218;28;20229;-85
2024/01/29 10:17:27;;;;;;;7.20;3.08;;;;;;;4.23;50.60;97065.75;5044380;28;20047;-83
2024/01/29 10:19:59;;;;;;;;;;;;;;;4.09;50.92;97029.06;5037830;28;20040;-87
2024/01/29 10:22:26;;;;;;;15.80;4.05;;;;;;;1.89;50.65;96666.19;5050484;28;19983;-84
2024/01/29 10:25:31;;;;;;;9.63;3.80;;;;;;;1.52;50.71;96602.59;5018369;28;20044;-85
2024/01/29 10:28:32;;;;;;;12.43;5.18;;;;;;;1.71;51.05;96616.88;5039691;28;20055;-84
2024/01/29 10:30:58;;;;;;;10.50;3.33;;;;;;;1.24;50.42;96530.22;5063262;28;20148;-83
2024/01/29 10:33:23;;;;;;;15.07;3.35;;;;;;;4.27;50.87;97014.47;5041389;28;20093;-80
2024/01/29 10:35:49;;;;;;;16.05;3.80;;;;;;;4.21;52.33;97022.28;5037566;28;20808;-81
2024/01/29 10:38:18;;;;;;;7.85;3.42;;;;;;;2.11;51.64;96686.19;5030827;28;20044;-84
2024/01/29 10:40:46;;;;;;;7.20;3.72;;;;;;;4.24;52.04;97001.72;5050311;28;20044;-83
2024/01/29 10:43:21;;;;;;;5.18;3.38;;;;;;;4.27;51.73;96982.16;5025448;28;20040;-82
2024/01/29 10:45:54;;;;;;;7.90;3.05;;;;;;;3.99;50.52;96921.72;5044571;28;20067;-80
2024/01/29 10:48:20;;;;;;;8.38;3.30;;;;;;;4.14;50.43;96935.59;5041881;28;20043;-83
2024/01/29 10:50:55;;;;;;;12.27;3.72;;;;;;;1.54;50.55;96523.94;5044662;28;20051;-83
2024/01/29 10:53:33;;;;;;;7.07;3.35;;;;;;;0.79;51.83;96451.09;5043924;28;20036;-85
2024/01/29 10:55:59;;;;;;;7.13;3.30;;;;;;;1.61;51.74;96544.94;5032902;28;20377;-86
2024/01/29 10:58:24;;;;;;;11.18;3.80;;;;;;;2.53;49.49;96711.59;5043012;28;20189;-83
2024/01/29 11:00:55;;;;;;;6.60;3.60;;;;;;;2.98;50.19;96815.25;5045695;28;20098;-81
2024/01/29 11:03:21;;;;;;;9.07;3.47;;;;;;;3.00;50.36;96805.41;5042977;28;20051;-82
2024/01/29 11:05:56;;;;;;;13.45;4.00;;;;;;;4.19;50.19;97019.88;5038941;28;20047;-81
2024/01/29 11:08:45;;;;;;;13.40;3.53;;;;;;;3.98;49.57;96971.78;5069578;28;20044;-83
2024/01/29 11:11:10;;;;;;;10.88;3.10;;;;;;;1.03;49.63;96523.13;5050406;28;20043;-81
2024/01/29 11:13:44;;;;;;;13.88;3.35;;;;;;;0.78;49.48;96446.84;5043002;28;20036;-82
2024/01/29 11:16:10;;;;;;;8.98;3.20;;;;;;;4.26;49.04;96985.78;5038484;28;20048;-83
2024/01/29 11:18:42;;;;;;;13.20;3.20;;;;;;;2.85;48.89;96791.53;5059434;28;20139;-80
2024/01/29 11:21:13;;;;;;;8.57;2.97;;;;;;;4.06;48.95;96948.84;5067093;28;20044;-83
2024/01/29 11:23:48;;;;;;;;;;;;;;;4.44;49.15;96969.53;5064545;28;20501;-84
2024/01/29 11:26:18;;;;;;;7.68;3.38;;;;;;;4.05;49.03;96920.97;5059434;28;19942;-83
2024/01/29 11:29:04;;;;;;;5.38;2.75;;;;;;;3.92;48.81;96883.31;5051576;28;20512;-82